createdAt,value
2023-09-11T00:02:12.896Z,100475.59
2023-09-11T00:05:15.297Z,100470.44
2023-09-11T00:08:17.466Z,100461.59
2023-09-11T00:11:20.232Z,100466.44
2023-09-11T00:14:22.479Z,100464.84
2023-09-11T00:17:25.117Z,100466.03
2023-09-11T00:20:27.387Z,100460.81
2023-09-11T00:23:30.041Z,100464.84
2023-09-11T00:26:32.343Z,100465.62
2023-09-11T00:29:35.447Z,100457.66
2023-09-11T00:32:37.861Z,100452.06
2023-09-11T00:35:43.840Z,100455.66
2023-09-11T00:38:48.972Z,100451.25
2023-09-11T00:41:51.670Z,100446.44
2023-09-11T00:44:55.157Z,100447.25
2023-09-11T00:47:57.961Z,100442.88
2023-09-11T00:51:00.992Z,100436.84
2023-09-11T00:54:03.678Z,100439.25
2023-09-11T00:57:06.347Z,100435.25
2023-09-11T01:00:09.597Z,100441.66
2023-09-11T01:03:14.703Z,100433.66
2023-09-11T01:06:17.229Z,100436.87
2023-09-11T01:09:19.498Z,100445.69
2023-09-11T01:12:21.914Z,100440.06
2023-09-11T01:15:28.628Z,100439.28
2023-09-11T01:18:49.506Z,100438.47
2023-09-11T01:21:51.588Z,100430.47
2023-09-11T01:25:02.822Z,100435.28
2023-09-11T01:28:19.183Z,100434.47
2023-09-11T01:31:22.113Z,100426.44
2023-09-11T01:34:24.197Z,100431.28
2023-09-11T01:37:27.262Z,100427.25
2023-09-11T01:40:30.345Z,100438.44
2023-09-11T01:43:36.537Z,100436.03
2023-09-11T01:46:38.747Z,100436.44
2023-09-11T01:49:42.248Z,100435.22
2023-09-11T01:52:45.272Z,100432.03
2023-09-11T01:55:48.004Z,100440.03
2023-09-11T01:58:50.458Z,100443.22
2023-09-11T02:01:52.961Z,100434.00
2023-09-11T02:04:55.378Z,100430.41
2023-09-11T02:07:58.182Z,100438.78
2023-09-11T02:11:00.580Z,100441.59
2023-09-11T02:14:02.721Z,100439.19
2023-09-11T02:17:05.186Z,100436.78
2023-09-11T02:20:07.628Z,100435.19
2023-09-11T02:23:10.042Z,100436.00
2023-09-11T02:26:12.140Z,100437.56
2023-09-11T02:29:14.692Z,100439.97
2023-09-11T02:32:17.185Z,100434.38
2023-09-11T02:35:19.624Z,100435.19
2023-09-11T02:38:22.141Z,100439.16
2023-09-11T02:41:24.625Z,100436.34
2023-09-11T02:44:26.797Z,100439.97
2023-09-11T02:47:29.357Z,100424.38
2023-09-11T02:50:31.548Z,100428.75
2023-09-11T02:53:33.998Z,100430.78
2023-09-11T02:56:39.323Z,100428.75
2023-09-11T02:59:42.023Z,100422.34
2023-09-11T03:02:44.288Z,100420.75
2023-09-11T03:05:46.848Z,100419.13
2023-09-11T03:08:49.177Z,100426.31
2023-09-11T03:11:51.708Z,100419.50
2023-09-11T03:14:53.979Z,100423.09
2023-09-11T03:17:56.582Z,100427.50
2023-09-11T03:20:59.067Z,100422.72
2023-09-11T03:24:01.630Z,100419.53
2023-09-11T03:27:03.889Z,100420.72
2023-09-11T03:30:06.688Z,100423.50
2023-09-11T03:33:09.186Z,100422.31
2023-09-11T03:36:18.449Z,100423.84
2023-09-11T03:39:21.138Z,100427.81
2023-09-11T03:42:23.813Z,100426.25
2023-09-11T03:45:27.877Z,100426.63
2023-09-11T03:48:30.588Z,100425.41
2023-09-11T03:51:32.991Z,100434.19
2023-09-11T03:54:35.463Z,100414.22
2023-09-11T03:57:37.772Z,100428.97
2023-09-11T04:00:40.556Z,100428.53
2023-09-11T04:03:43.340Z,100422.94
2023-09-11T04:06:46.835Z,100419.75
2023-09-11T04:09:49.309Z,100421.31
2023-09-11T04:12:51.567Z,100414.16
2023-09-11T04:15:54.269Z,100417.72
2023-09-11T04:18:56.550Z,100410.97
2023-09-11T04:21:58.958Z,100414.13
2023-09-11T04:25:01.271Z,100415.34
2023-09-11T04:28:04.117Z,100412.56
2023-09-11T04:31:06.282Z,100418.56
2023-09-11T04:34:09.156Z,100420.53
2023-09-11T04:37:12.058Z,100414.94
2023-09-11T04:40:14.665Z,100405.38
2023-09-11T04:43:17.284Z,100405.41
2023-09-11T04:46:20.009Z,100399.81
2023-09-11T04:49:22.444Z,100393.44
2023-09-11T04:52:25.365Z,100404.62
2023-09-11T04:55:28.021Z,100403.44
2023-09-11T04:58:30.552Z,100403.06
2023-09-11T05:01:33.102Z,100405.84
2023-09-11T05:04:35.944Z,100405.06
2023-09-11T05:07:38.374Z,100399.50
2023-09-11T05:10:42.870Z,100400.72
2023-09-11T05:13:45.733Z,100397.53
2023-09-11T05:16:48.915Z,100394.34
2023-09-11T05:19:51.190Z,100402.38
2023-09-11T05:22:53.810Z,100395.97
2023-09-11T05:25:56.017Z,100402.34
2023-09-11T05:28:58.418Z,100402.34
2023-09-11T05:32:00.580Z,100397.59
2023-09-11T05:35:03.875Z,100400.81
2023-09-11T05:38:06.059Z,100393.63
2023-09-11T05:41:08.493Z,100397.59
2023-09-11T05:44:10.587Z,100398.44
2023-09-11T05:47:12.966Z,100401.25
2023-09-11T05:50:15.889Z,100400.03
2023-09-11T05:53:18.373Z,100400.88
2023-09-11T05:56:20.637Z,100402.03
2023-09-11T05:59:23.166Z,100404.06
2023-09-11T06:02:25.318Z,100405.69
2023-09-11T06:05:28.033Z,100398.06
2023-09-11T06:08:30.381Z,100406.47
2023-09-11T06:11:33.135Z,100402.87
2023-09-11T06:14:39.229Z,100402.47
2023-09-11T06:17:45.642Z,100404.09
2023-09-11T06:20:48.325Z,100402.06
2023-09-11T06:23:50.886Z,100393.63
2023-09-11T06:27:02.982Z,100403.66
2023-09-11T06:30:06.862Z,100395.63
2023-09-11T06:33:09.102Z,100403.59
2023-09-11T06:36:11.554Z,100405.56
2023-09-11T06:39:13.758Z,100399.94
2023-09-11T06:42:19.728Z,100409.13
2023-09-11T06:45:22.615Z,100411.88
2023-09-11T06:48:26.394Z,100416.66
2023-09-11T06:51:28.746Z,100413.78
2023-09-11T06:54:31.361Z,100404.53
2023-09-11T06:57:33.765Z,100412.47
2023-09-11T07:00:36.245Z,100417.25
2023-09-11T07:03:38.500Z,100417.56
2023-09-11T07:06:41.771Z,100420.22
2023-09-11T07:09:44.084Z,100417.28
2023-09-11T07:12:47.047Z,100423.19
2023-09-11T07:15:56.309Z,100425.47
2023-09-11T07:18:59.623Z,100427.59
2023-09-11T07:22:01.783Z,100427.34
2023-09-11T07:25:06.417Z,100427.81
2023-09-11T07:28:08.827Z,100436.66
2023-09-11T07:31:11.303Z,100434.66
2023-09-11T07:34:15.712Z,100443.41
2023-09-11T07:37:18.389Z,100436.69
2023-09-11T07:40:21.022Z,100437.22
2023-09-11T07:43:23.484Z,100438.31
2023-09-11T07:46:26.012Z,100440.09
2023-09-11T07:49:29.707Z,100442.41
2023-09-11T07:52:31.912Z,100436.25
2023-09-11T07:55:38.398Z,100435.91
2023-09-11T07:58:41.239Z,100419.63
2023-09-11T08:01:44.041Z,100431.22
2023-09-11T08:04:46.587Z,100430.78
2023-09-11T08:07:51.804Z,100432.78
2023-09-11T08:10:56.273Z,100427.69
2023-09-11T08:14:00.328Z,100419.84
2023-09-11T08:17:02.883Z,100426.47
2023-09-11T08:20:05.335Z,100432.28
2023-09-11T08:23:07.800Z,100433.53
2023-09-11T08:26:10.164Z,100411.13
2023-09-11T08:29:16.802Z,100424.59
2023-09-11T08:32:18.913Z,100423.06
2023-09-11T08:35:21.309Z,100417.44
2023-09-11T08:38:23.501Z,100416.87
2023-09-11T08:41:26.130Z,100421.28
2023-09-11T08:44:28.231Z,100421.31
2023-09-11T08:47:31.736Z,100412.12
2023-09-11T08:50:37.052Z,100416.56
2023-09-11T08:53:40.322Z,100416.22
2023-09-11T08:56:42.640Z,100412.41
2023-09-11T08:59:45.817Z,100410.88
2023-09-11T09:02:48.727Z,100404.56
2023-09-11T09:05:51.539Z,100402.75
2023-09-11T09:08:53.895Z,100402.69
2023-09-11T09:11:56.465Z,100403.72
2023-09-11T09:14:58.999Z,100401.50
2023-09-11T09:18:01.542Z,100405.63
2023-09-11T09:21:07.879Z,100401.28
2023-09-11T09:24:15.804Z,100402.31
2023-09-11T09:27:21.434Z,100403.66
2023-09-11T09:30:24.942Z,100399.78
2023-09-11T09:33:28.244Z,100395.09
2023-09-11T09:36:34.313Z,100387.38
2023-09-11T09:39:44.115Z,100395.78
2023-09-11T09:42:46.537Z,100386.13
2023-09-11T09:45:51.143Z,100386.59
2023-09-11T09:48:53.708Z,100385.47
2023-09-11T09:52:01.327Z,100380.16
2023-09-11T09:55:09.924Z,100377.41
2023-09-11T09:58:13.008Z,100376.50
2023-09-11T10:01:17.073Z,100369.22
2023-09-11T10:04:21.876Z,100367.81
2023-09-11T10:07:40.157Z,100359.66
2023-09-11T10:10:42.861Z,100360.06
2023-09-11T10:13:45.444Z,100357.25
2023-09-11T10:16:48.003Z,100342.78
2023-09-11T10:19:51.059Z,100335.69
2023-09-11T10:22:54.332Z,100336.56
2023-09-11T10:25:59.830Z,100342.47
2023-09-11T10:29:06.921Z,100329.16
2023-09-11T10:32:11.255Z,100329.97
2023-09-11T10:35:13.691Z,100318.47
2023-09-11T10:38:16.557Z,100322.22
2023-09-11T10:41:19.401Z,100316.62
2023-09-11T10:44:21.736Z,100313.31
2023-09-11T10:47:24.296Z,100319.03
2023-09-11T10:50:39.333Z,100309.81
2023-09-11T10:53:42.729Z,100314.72
2023-09-11T10:56:45.584Z,100316.69
2023-09-11T10:59:50.283Z,100312.53
2023-09-11T11:02:53.787Z,100308.72
2023-09-11T11:05:58.957Z,100303.44
2023-09-11T11:09:01.552Z,100301.47
2023-09-11T11:12:10.344Z,100319.03
2023-09-11T11:15:25.906Z,100316.00
2023-09-11T11:18:29.089Z,100303.47
2023-09-11T11:21:40.973Z,100297.78
2023-09-11T11:24:56.005Z,100289.81
2023-09-11T11:28:02.448Z,100296.34
2023-09-11T11:31:06.928Z,100296.75
2023-09-11T11:34:11.005Z,100285.97
2023-09-11T11:37:13.767Z,100283.34
2023-09-11T11:40:16.042Z,100288.75
2023-09-11T11:43:19.213Z,100282.03
2023-09-11T11:46:26.903Z,100270.19
2023-09-11T11:49:29.653Z,100270.69
2023-09-11T11:52:31.777Z,100268.75
2023-09-11T11:55:34.179Z,100264.88
2023-09-11T11:58:36.361Z,100267.00
2023-09-11T12:01:39.137Z,100254.00
2023-09-11T12:04:49.865Z,100250.16
2023-09-11T12:07:53.708Z,100247.06
2023-09-11T12:10:56.198Z,100238.09
2023-09-11T12:13:58.611Z,100241.81
2023-09-11T12:17:01.270Z,100243.97
2023-09-11T12:20:10.532Z,100235.50
2023-09-11T12:23:13.841Z,100235.34
2023-09-11T12:26:15.984Z,100236.50
2023-09-11T12:29:19.240Z,100232.16
2023-09-11T12:32:24.187Z,100225.84
2023-09-11T12:35:32.634Z,100226.56
2023-09-11T12:38:34.810Z,100222.91
2023-09-11T12:41:37.269Z,100220.13
2023-09-11T12:44:41.512Z,100219.94
2023-09-11T12:47:44.106Z,100214.84
2023-09-11T12:50:46.288Z,100224.13
2023-09-11T12:53:49.234Z,100207.97
2023-09-11T12:56:51.643Z,100205.75
2023-09-11T12:59:54.799Z,100207.53
2023-09-11T13:02:58.158Z,100213.00
2023-09-11T13:06:01.197Z,100207.56
2023-09-11T13:09:03.784Z,100201.03
2023-09-11T13:12:06.279Z,100191.19
2023-09-11T13:15:08.904Z,100188.84
2023-09-11T13:18:11.475Z,100187.94
2023-09-11T13:21:13.861Z,100192.53
2023-09-11T13:24:16.383Z,100181.94
2023-09-11T13:27:18.593Z,100175.47
2023-09-11T13:30:21.183Z,100177.06
2023-09-11T13:33:23.391Z,100182.94
2023-09-11T13:36:25.945Z,100161.97
2023-09-11T13:39:28.242Z,100166.50
2023-09-11T13:42:30.864Z,100158.41
2023-09-11T13:45:33.167Z,100151.38
2023-09-11T13:48:38.557Z,100150.09
2023-09-11T13:51:40.928Z,100149.75
2023-09-11T13:54:45.706Z,100157.72
2023-09-11T13:57:47.886Z,100149.37
2023-09-11T14:00:50.377Z,100144.59
2023-09-11T14:03:52.893Z,100138.91
2023-09-11T14:06:55.117Z,100137.81
2023-09-11T14:10:00.550Z,100127.63
2023-09-11T14:13:02.692Z,100126.81
2023-09-11T14:16:06.592Z,100123.06
2023-09-11T14:19:18.050Z,100117.12
2023-09-11T14:22:20.586Z,100121.91
2023-09-11T14:25:22.767Z,100116.19
2023-09-11T14:28:26.307Z,100112.69
2023-09-11T14:31:29.206Z,100121.44
2023-09-11T14:34:32.308Z,100118.63
2023-09-11T14:37:37.184Z,100107.47
2023-09-11T14:40:39.643Z,100111.69
2023-09-11T14:43:41.931Z,100112.50
2023-09-11T14:46:47.641Z,100109.06
2023-09-11T14:49:50.917Z,100111.47
2023-09-11T14:52:53.784Z,100109.91
2023-09-11T14:55:56.607Z,100111.50
2023-09-11T14:58:59.150Z,100102.31
2023-09-11T15:02:02.160Z,100104.56
2023-09-11T15:05:05.251Z,100096.69
2023-09-11T15:08:08.532Z,100103.69
2023-09-11T15:11:11.043Z,100092.63
2023-09-11T15:14:13.199Z,100094.50
2023-09-11T15:17:15.861Z,100094.19
2023-09-11T15:20:18.369Z,100099.56
2023-09-11T15:23:26.289Z,100096.72
2023-09-11T15:26:28.738Z,100092.94
2023-09-11T15:29:32.368Z,100089.94
2023-09-11T15:32:34.735Z,100089.47
2023-09-11T15:35:56.335Z,100088.78
2023-09-11T15:39:00.336Z,100092.25
2023-09-11T15:42:06.069Z,100085.28
2023-09-11T15:45:08.802Z,100088.63
2023-09-11T15:48:18.538Z,100088.44
2023-09-11T15:51:21.006Z,100091.56
2023-09-11T15:54:26.665Z,100075.16
2023-09-11T15:57:28.848Z,100081.78
2023-09-11T16:00:31.506Z,100073.88
2023-09-11T16:03:37.144Z,100071.69
2023-09-11T16:06:39.662Z,100066.00
2023-09-11T16:09:45.036Z,100074.03
2023-09-11T16:12:47.504Z,100059.28
2023-09-11T16:15:51.089Z,100059.91
2023-09-11T16:19:56.704Z,100058.81
2023-09-11T16:23:02.799Z,100058.81
2023-09-11T16:26:07.907Z,100060.47
2023-09-11T16:29:10.914Z,100064.72
2023-09-11T16:32:13.197Z,100063.31
2023-09-11T16:35:15.748Z,100061.09
2023-09-11T16:38:18.243Z,100054.75
2023-09-11T16:41:20.749Z,100056.91
2023-09-11T16:44:26.942Z,100058.25
2023-09-11T16:47:29.755Z,100059.38
2023-09-11T16:50:32.360Z,100055.44
2023-09-11T16:53:34.853Z,100055.50
2023-09-11T16:56:39.511Z,100059.16
2023-09-11T16:59:45.774Z,100047.75
2023-09-11T17:02:56.549Z,100047.19
2023-09-11T17:06:00.467Z,100050.72
2023-09-11T17:09:02.691Z,100047.31
2023-09-11T17:12:05.732Z,100054.37
2023-09-11T17:15:11.509Z,100052.56
2023-09-11T17:18:17.343Z,100051.09
2023-09-11T17:21:21.585Z,100052.81
2023-09-11T17:24:27.863Z,100066.25
2023-09-11T17:27:30.165Z,100057.13
2023-09-11T17:30:32.834Z,100061.75
2023-09-11T17:33:35.185Z,100061.97
2023-09-11T17:36:37.747Z,100071.91
2023-09-11T17:39:39.851Z,100062.84
2023-09-11T17:42:42.516Z,100062.62
2023-09-11T17:45:45.540Z,100063.97
2023-09-11T17:48:48.056Z,100052.00
2023-09-11T17:51:51.764Z,100067.81
2023-09-11T17:54:54.331Z,100076.84
2023-09-11T17:57:56.459Z,100073.69
2023-09-11T18:00:58.911Z,100081.81
2023-09-11T18:04:01.656Z,100076.28
2023-09-11T18:07:04.502Z,100074.91
2023-09-11T18:10:07.295Z,100085.59
2023-09-11T18:13:10.247Z,100083.91
2023-09-11T18:16:12.727Z,100089.31
2023-09-11T18:19:15.172Z,100091.84
2023-09-11T18:22:17.592Z,100098.59
2023-09-11T18:25:21.650Z,100100.38
2023-09-11T18:28:24.290Z,100101.81
2023-09-11T18:31:26.433Z,100105.59
2023-09-11T18:34:29.063Z,100098.47
2023-09-11T18:37:31.275Z,100096.19
2023-09-11T18:40:34.031Z,100110.47
2023-09-11T18:43:41.394Z,100113.50
2023-09-11T18:46:43.848Z,100109.53
2023-09-11T18:49:47.624Z,100115.31
2023-09-11T18:52:50.092Z,100115.41
2023-09-11T18:55:53.796Z,100109.94
2023-09-11T18:58:56.321Z,100111.69
2023-09-11T19:02:02.809Z,100108.25
2023-09-11T19:05:05.675Z,100111.19
2023-09-11T19:08:07.911Z,100117.34
2023-09-11T19:11:10.429Z,100116.19
2023-09-11T19:14:12.722Z,100113.81
2023-09-11T19:17:15.369Z,100115.56
2023-09-11T19:20:17.861Z,100110.81
2023-09-11T19:23:20.266Z,100117.31
2023-09-11T19:26:23.740Z,100119.06
2023-09-11T19:29:26.187Z,100115.97
2023-09-11T19:32:28.339Z,100118.13
2023-09-11T19:35:30.862Z,100116.28
2023-09-11T19:38:33.025Z,100110.00
2023-09-11T19:41:35.660Z,100107.69
2023-09-11T19:44:38.295Z,100113.84
2023-09-11T19:47:40.880Z,100115.16
2023-09-11T19:50:44.256Z,100115.56
2023-09-11T19:53:46.851Z,100113.28
2023-09-11T19:56:50.003Z,100109.75
2023-09-11T19:59:53.113Z,100115.00
2023-09-11T20:02:55.458Z,100113.50
2023-09-11T20:05:58.330Z,100115.56
2023-09-11T20:09:00.863Z,100115.66
2023-09-11T20:12:08.761Z,100114.94
2023-09-11T20:15:11.020Z,100112.97
2023-09-11T20:18:13.629Z,100106.22
2023-09-11T20:21:16.172Z,100107.47
2023-09-11T20:24:18.869Z,100098.28
2023-09-11T20:27:21.383Z,100095.19
2023-09-11T20:30:24.377Z,100098.09
2023-09-11T20:33:26.714Z,100093.69
2023-09-11T20:36:30.083Z,100093.03
2023-09-11T20:39:32.367Z,100102.75
2023-09-11T20:42:35.023Z,100107.66
2023-09-11T20:45:37.247Z,100108.88
2023-09-11T20:48:41.282Z,100107.72
2023-09-11T20:51:43.611Z,100107.72
2023-09-11T20:54:46.059Z,100103.75
2023-09-11T20:57:49.275Z,100107.78
2023-09-11T21:00:51.761Z,100110.22
2023-09-11T21:03:54.215Z,100115.50
2023-09-11T21:06:56.825Z,100105.47
2023-09-11T21:09:58.995Z,100107.12
2023-09-11T21:13:03.612Z,100107.97
2023-09-11T21:16:05.977Z,100111.22
2023-09-11T21:19:08.572Z,100107.66
2023-09-11T21:22:10.720Z,100099.38
2023-09-11T21:25:13.152Z,100110.66
2023-09-11T21:28:15.232Z,100115.94
2023-09-11T21:31:17.732Z,100111.97
2023-09-11T21:34:20.231Z,100106.06
2023-09-11T21:37:22.816Z,100106.91
2023-09-11T21:40:24.984Z,100111.00
2023-09-11T21:43:27.672Z,100101.41
2023-09-11T21:46:29.920Z,100108.69
2023-09-11T21:49:32.387Z,100105.56
2023-09-11T21:52:34.492Z,100102.75
2023-09-11T21:55:36.888Z,100105.97
2023-09-11T21:58:39.054Z,100112.03
2023-09-11T22:01:41.624Z,100109.69
2023-09-11T22:04:44.071Z,100107.72
2023-09-11T22:07:46.347Z,100112.13
2023-09-11T22:10:48.899Z,100106.50
2023-09-11T22:13:51.567Z,100104.94
2023-09-11T22:16:54.111Z,100109.78
2023-09-11T22:19:56.287Z,100108.31
2023-09-11T22:22:58.656Z,100105.94
2023-09-11T22:26:00.874Z,100105.97
2023-09-11T22:29:03.240Z,100115.63
2023-09-11T22:32:05.579Z,100116.47
2023-09-11T22:35:08.173Z,100116.56
2023-09-11T22:38:13.167Z,100118.19
2023-09-11T22:41:15.596Z,100113.75
2023-09-11T22:44:19.195Z,100108.97
2023-09-11T22:47:22.093Z,100109.00
2023-09-11T22:50:24.407Z,100110.25
2023-09-11T22:53:27.711Z,100109.47
2023-09-11T22:56:30.275Z,100107.94
2023-09-11T22:59:32.910Z,100105.63
2023-09-11T23:02:35.072Z,100103.28
2023-09-11T23:05:38.188Z,100100.91
2023-09-11T23:08:40.767Z,100104.19
2023-09-11T23:11:43.374Z,100101.03
2023-09-11T23:14:46.040Z,100093.00
2023-09-11T23:17:48.477Z,100100.34
2023-09-11T23:20:50.752Z,100098.75
2023-09-11T23:23:53.197Z,100101.19
2023-09-11T23:26:55.366Z,100101.22
2023-09-11T23:29:57.849Z,100092.44
2023-09-11T23:33:00.075Z,100091.63
2023-09-11T23:36:02.824Z,100093.28
2023-09-11T23:39:06.276Z,100101.31
2023-09-11T23:42:09.408Z,100095.75
2023-09-11T23:45:11.679Z,100096.56
2023-09-11T23:48:14.267Z,100098.59
2023-09-11T23:51:16.576Z,100100.63
2023-09-11T23:54:19.104Z,100097.41
2023-09-11T23:57:21.411Z,100101.06
